sensor_id;sensor_type;location;lat;lon;timestamp;P1;durP1;ratioP1;P2;durP2;ratioP2
46643;SDS011;32371;51.032;5.816;2023-01-15T00:01:17;2.90;;;0.35;;
46643;SDS011;32371;51.032;5.816;2023-01-15T00:03:50;0.70;;;0.32;;
46643;SDS011;32371;51.032;5.816;2023-01-15T00:06:16;1.58;;;0.38;;
46643;SDS011;32371;51.032;5.816;2023-01-15T00:08:42;3.72;;;0.40;;
46643;SDS011;32371;51.032;5.816;2023-01-15T00:11:08;1.83;;;0.30;;
46643;SDS011;32371;51.032;5.816;2023-01-15T00:13:34;3.22;;;0.50;;
46643;SDS011;32371;51.032;5.816;2023-01-15T00:16:18;1.00;;;0.50;;
46643;SDS011;32371;51.032;5.816;2023-01-15T00:18:52;4.80;;;0.52;;
46643;SDS011;32371;51.032;5.816;2023-01-15T00:21:23;1.30;;;0.32;;
46643;SDS011;32371;51.032;5.816;2023-01-15T00:23:50;2.45;;;0.38;;
46643;SDS011;32371;51.032;5.816;2023-01-15T00:26:34;1.83;;;0.28;;
46643;SDS011;32371;51.032;5.816;2023-01-15T00:29:19;1.63;;;0.40;;
46643;SDS011;32371;51.032;5.816;2023-01-15T00:31:52;1.65;;;0.40;;
46643;SDS011;32371;51.032;5.816;2023-01-15T00:34:20;2.45;;;0.45;;
46643;SDS011;32371;51.032;5.816;2023-01-15T00:36:45;1.50;;;0.50;;
46643;SDS011;32371;51.032;5.816;2023-01-15T00:39:10;0.10;;;0.10;;
46643;SDS011;32371;51.032;5.816;2023-01-15T00:41:36;3.10;;;0.17;;
46643;SDS011;32371;51.032;5.816;2023-01-15T00:44:01;1.25;;;0.65;;
46643;SDS011;32371;51.032;5.816;2023-01-15T00:46:27;1.75;;;0.17;;
46643;SDS011;32371;51.032;5.816;2023-01-15T00:48:52;0.15;;;0.10;;
46643;SDS011;32371;51.032;5.816;2023-01-15T00:51:18;2.08;;;0.30;;
46643;SDS011;32371;51.032;5.816;2023-01-15T00:53:43;1.00;;;0.40;;
46643;SDS011;32371;51.032;5.816;2023-01-15T00:56:09;3.15;;;0.30;;
46643;SDS011;32371;51.032;5.816;2023-01-15T00:58:34;1.10;;;0.28;;
46643;SDS011;32371;51.032;5.816;2023-01-15T01:00:59;2.55;;;0.30;;
46643;SDS011;32371;51.032;5.816;2023-01-15T01:03:25;0.52;;;0.10;;
46643;SDS011;32371;51.032;5.816;2023-01-15T01:05:50;2.53;;;0.70;;
46643;SDS011;32371;51.032;5.816;2023-01-15T01:08:16;0.32;;;0.20;;
46643;SDS011;32371;51.032;5.816;2023-01-15T01:10:41;1.50;;;0.40;;
46643;SDS011;32371;51.032;5.816;2023-01-15T01:13:07;4.18;;;0.47;;
46643;SDS011;32371;51.032;5.816;2023-01-15T01:15:33;4.68;;;0.43;;
46643;SDS011;32371;51.032;5.816;2023-01-15T01:17:59;0.98;;;0.38;;
46643;SDS011;32371;51.032;5.816;2023-01-15T01:20:24;3.63;;;0.40;;
46643;SDS011;32371;51.032;5.816;2023-01-15T01:22:50;1.27;;;0.10;;
46643;SDS011;32371;51.032;5.816;2023-01-15T01:25:16;0.70;;;0.38;;
46643;SDS011;32371;51.032;5.816;2023-01-15T01:27:43;0.38;;;0.30;;
46643;SDS011;32371;51.032;5.816;2023-01-15T01:30:09;1.50;;;0.32;;
46643;SDS011;32371;51.032;5.816;2023-01-15T01:32:35;1.02;;;0.30;;
46643;SDS011;32371;51.032;5.816;2023-01-15T01:35:00;0.20;;;0.20;;
46643;SDS011;32371;51.032;5.816;2023-01-15T01:37:26;0.30;;;0.05;;
46643;SDS011;32371;51.032;5.816;2023-01-15T01:39:51;0.20;;;0.13;;
46643;SDS011;32371;51.032;5.816;2023-01-15T01:42:17;3.00;;;0.38;;
46643;SDS011;32371;51.032;5.816;2023-01-15T01:47:14;0.95;;;0.20;;
46643;SDS011;32371;51.032;5.816;2023-01-15T01:49:47;0.98;;;0.75;;
46643;SDS011;32371;51.032;5.816;2023-01-15T01:52:15;0.88;;;0.20;;
46643;SDS011;32371;51.032;5.816;2023-01-15T01:54:44;3.13;;;0.30;;
46643;SDS011;32371;51.032;5.816;2023-01-15T01:57:10;2.30;;;0.10;;
46643;SDS011;32371;51.032;5.816;2023-01-15T01:59:36;3.10;;;0.32;;
46643;SDS011;32371;51.032;5.816;2023-01-15T02:02:02;1.13;;;0.30;;
46643;SDS011;32371;51.032;5.816;2023-01-15T02:04:27;1.08;;;0.10;;
46643;SDS011;32371;51.032;5.816;2023-01-15T02:06:53;1.70;;;0.30;;
46643;SDS011;32371;51.032;5.816;2023-01-15T02:09:19;0.98;;;0.28;;
46643;SDS011;32371;51.032;5.816;2023-01-15T02:11:44;8.15;;;0.25;;
46643;SDS011;32371;51.032;5.816;2023-01-15T02:17:13;5.68;;;0.68;;
46643;SDS011;32371;51.032;5.816;2023-01-15T02:19:49;2.72;;;0.30;;
46643;SDS011;32371;51.032;5.816;2023-01-15T02:22:32;2.05;;;0.50;;
46643;SDS011;32371;51.032;5.816;2023-01-15T02:25:06;1.20;;;0.25;;
46643;SDS011;32371;51.032;5.816;2023-01-15T02:27:54;2.47;;;0.38;;
46643;SDS011;32371;51.032;5.816;2023-01-15T02:30:27;1.25;;;0.57;;
46643;SDS011;32371;51.032;5.816;2023-01-15T02:32:57;3.78;;;0.40;;
46643;SDS011;32371;51.032;5.816;2023-01-15T02:35:30;1.85;;;0.47;;
46643;SDS011;32371;51.032;5.816;2023-01-15T02:38:00;3.55;;;0.40;;
46643;SDS011;32371;51.032;5.816;2023-01-15T02:40:28;2.10;;;0.57;;
46643;SDS011;32371;51.032;5.816;2023-01-15T02:42:54;3.05;;;1.15;;
46643;SDS011;32371;51.032;5.816;2023-01-15T02:45:26;6.60;;;0.55;;
46643;SDS011;32371;51.032;5.816;2023-01-15T02:47:54;8.93;;;0.93;;
46643;SDS011;32371;51.032;5.816;2023-01-15T02:50:24;1.15;;;0.40;;
46643;SDS011;32371;51.032;5.816;2023-01-15T02:52:52;5.15;;;0.50;;
46643;SDS011;32371;51.032;5.816;2023-01-15T02:55:25;2.38;;;0.47;;
46643;SDS011;32371;51.032;5.816;2023-01-15T02:57:54;2.95;;;0.40;;
46643;SDS011;32371;51.032;5.816;2023-01-15T03:00:21;1.50;;;0.65;;
46643;SDS011;32371;51.032;5.816;2023-01-15T03:02:50;4.05;;;0.60;;
46643;SDS011;32371;51.032;5.816;2023-01-15T03:06:06;5.00;;;0.40;;
46643;SDS011;32371;51.032;5.816;2023-01-15T03:08:19;2.30;;;0.40;;
46643;SDS011;32371;51.032;5.816;2023-01-15T03:13:34;1.83;;;0.32;;
46643;SDS011;32371;51.032;5.816;2023-01-15T03:18:54;3.17;;;0.40;;
46643;SDS011;32371;51.032;5.816;2023-01-15T03:21:27;2.50;;;0.38;;
46643;SDS011;32371;51.032;5.816;2023-01-15T03:23:56;3.72;;;0.30;;
46643;SDS011;32371;51.032;5.816;2023-01-15T03:26:23;2.20;;;0.40;;
46643;SDS011;32371;51.032;5.816;2023-01-15T03:28:49;2.80;;;0.77;;
46643;SDS011;32371;51.032;5.816;2023-01-15T03:31:15;2.13;;;0.63;;
46643;SDS011;32371;51.032;5.816;2023-01-15T03:33:40;3.33;;;0.70;;
46643;SDS011;32371;51.032;5.816;2023-01-15T03:36:06;0.75;;;0.30;;
46643;SDS011;32371;51.032;5.816;2023-01-15T03:38:36;1.65;;;0.65;;
46643;SDS011;32371;51.032;5.816;2023-01-15T03:54:52;4.30;;;0.35;;
46643;SDS011;32371;51.032;5.816;2023-01-15T03:57:28;5.90;;;0.50;;
46643;SDS011;32371;51.032;5.816;2023-01-15T04:00:00;1.90;;;0.70;;
46643;SDS011;32371;51.032;5.816;2023-01-15T04:02:34;3.63;;;0.60;;
46643;SDS011;32371;51.032;5.816;2023-01-15T04:05:01;3.30;;;0.40;;
46643;SDS011;32371;51.032;5.816;2023-01-15T04:07:27;2.20;;;0.40;;
46643;SDS011;32371;51.032;5.816;2023-01-15T04:09:54;1.58;;;1.08;;
46643;SDS011;32371;51.032;5.816;2023-01-15T04:12:20;4.70;;;0.68;;
46643;SDS011;32371;51.032;5.816;2023-01-15T04:14:45;2.75;;;0.20;;
46643;SDS011;32371;51.032;5.816;2023-01-15T04:17:10;2.17;;;0.52;;
46643;SDS011;32371;51.032;5.816;2023-01-15T04:19:36;4.13;;;0.60;;
46643;SDS011;32371;51.032;5.816;2023-01-15T04:22:02;9.00;;;0.60;;
46643;SDS011;32371;51.032;5.816;2023-01-15T04:24:27;5.20;;;0.50;;
46643;SDS011;32371;51.032;5.816;2023-01-15T04:26:53;1.65;;;0.50;;
46643;SDS011;32371;51.032;5.816;2023-01-15T04:29:18;2.92;;;0.43;;
46643;SDS011;32371;51.032;5.816;2023-01-15T04:31:43;3.22;;;0.80;;
46643;SDS011;32371;51.032;5.816;2023-01-15T04:34:09;4.63;;;0.98;;
46643;SDS011;32371;51.032;5.816;2023-01-15T04:36:34;5.00;;;1.00;;
46643;SDS011;32371;51.032;5.816;2023-01-15T04:39:00;6.75;;;1.00;;
46643;SDS011;32371;51.032;5.816;2023-01-15T04:41:26;10.45;;;0.98;;
46643;SDS011;32371;51.032;5.816;2023-01-15T04:44:10;4.30;;;0.35;;
46643;SDS011;32371;51.032;5.816;2023-01-15T04:46:37;2.80;;;0.68;;
46643;SDS011;32371;51.032;5.816;2023-01-15T04:49:11;3.92;;;0.45;;
46643;SDS011;32371;51.032;5.816;2023-01-15T04:51:38;4.63;;;0.60;;
46643;SDS011;32371;51.032;5.816;2023-01-15T04:54:04;10.50;;;0.90;;
46643;SDS011;32371;51.032;5.816;2023-01-15T04:56:30;5.55;;;0.43;;
46643;SDS011;32371;51.032;5.816;2023-01-15T04:58:59;1.42;;;0.50;;
46643;SDS011;32371;51.032;5.816;2023-01-15T05:01:26;2.53;;;0.25;;
46643;SDS011;32371;51.032;5.816;2023-01-15T05:03:51;4.28;;;0.63;;
46643;SDS011;32371;51.032;5.816;2023-01-15T05:06:16;4.45;;;0.90;;
46643;SDS011;32371;51.032;5.816;2023-01-15T05:08:42;3.47;;;0.65;;
46643;SDS011;32371;51.032;5.816;2023-01-15T05:11:08;9.68;;;0.50;;
46643;SDS011;32371;51.032;5.816;2023-01-15T05:13:34;3.30;;;0.52;;
46643;SDS011;32371;51.032;5.816;2023-01-15T05:16:06;1.60;;;0.50;;
46643;SDS011;32371;51.032;5.816;2023-01-15T05:18:38;4.38;;;0.30;;
46643;SDS011;32371;51.032;5.816;2023-01-15T05:21:04;2.30;;;0.25;;
46643;SDS011;32371;51.032;5.816;2023-01-15T05:23:30;3.05;;;0.40;;
46643;SDS011;32371;51.032;5.816;2023-01-15T05:25:56;2.78;;;0.50;;
46643;SDS011;32371;51.032;5.816;2023-01-15T05:28:21;2.05;;;0.40;;
46643;SDS011;32371;51.032;5.816;2023-01-15T05:30:47;4.22;;;0.88;;
46643;SDS011;32371;51.032;5.816;2023-01-15T05:33:12;2.45;;;0.43;;
46643;SDS011;32371;51.032;5.816;2023-01-15T05:35:38;2.25;;;0.38;;
46643;SDS011;32371;51.032;5.816;2023-01-15T05:38:03;2.50;;;0.35;;
46643;SDS011;32371;51.032;5.816;2023-01-15T05:40:30;3.03;;;0.57;;
46643;SDS011;32371;51.032;5.816;2023-01-15T05:42:56;3.50;;;0.40;;
46643;SDS011;32371;51.032;5.816;2023-01-15T05:45:21;1.17;;;0.40;;
46643;SDS011;32371;51.032;5.816;2023-01-15T05:47:47;3.45;;;0.85;;
46643;SDS011;32371;51.032;5.816;2023-01-15T05:50:12;0.57;;;0.25;;
46643;SDS011;32371;51.032;5.816;2023-01-15T05:52:37;5.15;;;0.82;;
46643;SDS011;32371;51.032;5.816;2023-01-15T05:55:03;6.13;;;0.50;;
46643;SDS011;32371;51.032;5.816;2023-01-15T05:57:30;7.07;;;0.60;;
46643;SDS011;32371;51.032;5.816;2023-01-15T05:59:56;3.22;;;1.02;;
46643;SDS011;32371;51.032;5.816;2023-01-15T06:02:22;2.75;;;1.75;;
46643;SDS011;32371;51.032;5.816;2023-01-15T06:04:47;5.95;;;0.65;;
46643;SDS011;32371;51.032;5.816;2023-01-15T06:07:13;4.65;;;0.50;;
46643;SDS011;32371;51.032;5.816;2023-01-15T06:09:41;2.60;;;0.45;;
46643;SDS011;32371;51.032;5.816;2023-01-15T06:12:06;1.05;;;0.30;;
46643;SDS011;32371;51.032;5.816;2023-01-15T06:14:32;1.65;;;0.50;;
46643;SDS011;32371;51.032;5.816;2023-01-15T06:16:57;2.22;;;0.50;;
46643;SDS011;32371;51.032;5.816;2023-01-15T06:19:22;4.90;;;0.40;;
46643;SDS011;32371;51.032;5.816;2023-01-15T06:21:48;2.72;;;0.57;;
46643;SDS011;32371;51.032;5.816;2023-01-15T06:24:13;3.42;;;1.00;;
46643;SDS011;32371;51.032;5.816;2023-01-15T06:26:41;7.22;;;1.00;;
46643;SDS011;32371;51.032;5.816;2023-01-15T06:29:06;2.30;;;0.63;;
46643;SDS011;32371;51.032;5.816;2023-01-15T06:31:31;2.50;;;0.25;;
46643;SDS011;32371;51.032;5.816;2023-01-15T06:33:57;5.32;;;0.70;;
46643;SDS011;32371;51.032;5.816;2023-01-15T06:36:23;0.93;;;0.30;;
46643;SDS011;32371;51.032;5.816;2023-01-15T06:38:50;3.80;;;0.93;;
46643;SDS011;32371;51.032;5.816;2023-01-15T06:41:19;0.75;;;0.20;;
46643;SDS011;32371;51.032;5.816;2023-01-15T06:44:14;2.35;;;0.35;;
46643;SDS011;32371;51.032;5.816;2023-01-15T06:47:00;4.97;;;0.65;;
46643;SDS011;32371;51.032;5.816;2023-01-15T06:49:54;2.35;;;0.30;;
46643;SDS011;32371;51.032;5.816;2023-01-15T06:52:22;6.78;;;0.73;;
46643;SDS011;32371;51.032;5.816;2023-01-15T06:54:48;4.95;;;0.50;;
46643;SDS011;32371;51.032;5.816;2023-01-15T06:57:13;1.73;;;0.43;;
46643;SDS011;32371;51.032;5.816;2023-01-15T06:59:38;2.40;;;0.40;;
46643;SDS011;32371;51.032;5.816;2023-01-15T07:02:04;2.25;;;0.55;;
46643;SDS011;32371;51.032;5.816;2023-01-15T07:04:29;1.35;;;0.38;;
46643;SDS011;32371;51.032;5.816;2023-01-15T07:06:56;4.32;;;0.40;;
46643;SDS011;32371;51.032;5.816;2023-01-15T07:09:21;3.80;;;0.40;;
46643;SDS011;32371;51.032;5.816;2023-01-15T07:11:46;0.47;;;0.20;;
46643;SDS011;32371;51.032;5.816;2023-01-15T07:14:19;2.38;;;0.55;;
46643;SDS011;32371;51.032;5.816;2023-01-15T07:16:48;0.65;;;0.20;;
46643;SDS011;32371;51.032;5.816;2023-01-15T07:19:14;1.70;;;0.52;;
46643;SDS011;32371;51.032;5.816;2023-01-15T07:21:40;3.78;;;0.30;;
46643;SDS011;32371;51.032;5.816;2023-01-15T07:24:05;4.15;;;0.22;;
46643;SDS011;32371;51.032;5.816;2023-01-15T07:26:31;1.75;;;0.47;;
46643;SDS011;32371;51.032;5.816;2023-01-15T07:28:57;1.70;;;0.22;;
46643;SDS011;32371;51.032;5.816;2023-01-15T07:31:22;1.30;;;0.50;;
46643;SDS011;32371;51.032;5.816;2023-01-15T07:33:47;0.28;;;0.20;;
46643;SDS011;32371;51.032;5.816;2023-01-15T07:36:13;3.00;;;0.30;;
46643;SDS011;32371;51.032;5.816;2023-01-15T07:38:38;0.70;;;0.15;;
46643;SDS011;32371;51.032;5.816;2023-01-15T07:41:04;1.05;;;0.38;;
46643;SDS011;32371;51.032;5.816;2023-01-15T07:43:48;0.50;;;0.50;;
46643;SDS011;32371;51.032;5.816;2023-01-15T07:46:31;2.17;;;0.30;;
46643;SDS011;32371;51.032;5.816;2023-01-15T07:49:15;1.40;;;0.95;;
46643;SDS011;32371;51.032;5.816;2023-01-15T07:51:59;0.50;;;0.20;;
46643;SDS011;32371;51.032;5.816;2023-01-15T07:54:24;0.40;;;0.17;;
46643;SDS011;32371;51.032;5.816;2023-01-15T07:56:50;0.57;;;0.30;;
46643;SDS011;32371;51.032;5.816;2023-01-15T07:59:17;0.35;;;0.20;;
46643;SDS011;32371;51.032;5.816;2023-01-15T08:01:42;6.32;;;1.15;;
46643;SDS011;32371;51.032;5.816;2023-01-15T08:04:08;0.82;;;0.40;;
46643;SDS011;32371;51.032;5.816;2023-01-15T08:06:34;3.33;;;0.52;;
46643;SDS011;32371;51.032;5.816;2023-01-15T08:08:59;0.82;;;0.30;;
46643;SDS011;32371;51.032;5.816;2023-01-15T08:11:25;7.13;;;0.60;;
46643;SDS011;32371;51.032;5.816;2023-01-15T08:14:09;2.63;;;0.50;;
46643;SDS011;32371;51.032;5.816;2023-01-15T08:16:53;1.15;;;0.30;;
46643;SDS011;32371;51.032;5.816;2023-01-15T08:19:18;1.80;;;0.60;;
46643;SDS011;32371;51.032;5.816;2023-01-15T08:21:44;3.95;;;0.30;;
46643;SDS011;32371;51.032;5.816;2023-01-15T08:24:09;4.43;;;0.52;;
46643;SDS011;32371;51.032;5.816;2023-01-15T08:26:34;1.67;;;0.38;;
46643;SDS011;32371;51.032;5.816;2023-01-15T08:29:00;1.88;;;0.20;;
46643;SDS011;32371;51.032;5.816;2023-01-15T08:31:25;0.47;;;0.20;;
46643;SDS011;32371;51.032;5.816;2023-01-15T08:33:51;0.82;;;0.40;;
46643;SDS011;32371;51.032;5.816;2023-01-15T08:36:16;12.95;;;0.63;;
46643;SDS011;32371;51.032;5.816;2023-01-15T08:38:42;3.42;;;0.50;;
46643;SDS011;32371;51.032;5.816;2023-01-15T08:41:08;0.55;;;0.35;;
46643;SDS011;32371;51.032;5.816;2023-01-15T08:43:33;4.72;;;0.52;;
46643;SDS011;32371;51.032;5.816;2023-01-15T08:46:00;5.32;;;0.70;;
46643;SDS011;32371;51.032;5.816;2023-01-15T08:48:27;3.30;;;0.47;;
46643;SDS011;32371;51.032;5.816;2023-01-15T08:50:54;2.97;;;0.35;;
46643;SDS011;32371;51.032;5.816;2023-01-15T08:53:19;5.13;;;0.75;;
46643;SDS011;32371;51.032;5.816;2023-01-15T08:55:45;1.80;;;0.50;;
46643;SDS011;32371;51.032;5.816;2023-01-15T08:58:11;8.35;;;0.47;;
46643;SDS011;32371;51.032;5.816;2023-01-15T09:00:37;2.65;;;0.60;;
46643;SDS011;32371;51.032;5.816;2023-01-15T09:03:02;2.95;;;0.52;;
46643;SDS011;32371;51.032;5.816;2023-01-15T09:05:28;1.88;;;0.50;;
46643;SDS011;32371;51.032;5.816;2023-01-15T09:07:53;1.67;;;0.60;;
46643;SDS011;32371;51.032;5.816;2023-01-15T09:10:19;2.78;;;0.82;;
46643;SDS011;32371;51.032;5.816;2023-01-15T09:12:45;4.53;;;0.80;;
46643;SDS011;32371;51.032;5.816;2023-01-15T09:15:11;4.07;;;1.10;;
46643;SDS011;32371;51.032;5.816;2023-01-15T09:17:36;8.75;;;0.52;;
46643;SDS011;32371;51.032;5.816;2023-01-15T09:20:05;3.20;;;0.68;;
46643;SDS011;32371;51.032;5.816;2023-01-15T09:22:31;1.80;;;0.45;;
46643;SDS011;32371;51.032;5.816;2023-01-15T09:24:57;4.80;;;0.85;;
46643;SDS011;32371;51.032;5.816;2023-01-15T09:27:22;6.93;;;0.80;;
46643;SDS011;32371;51.032;5.816;2023-01-15T09:29:48;6.18;;;0.90;;
46643;SDS011;32371;51.032;5.816;2023-01-15T09:32:13;8.05;;;0.80;;
46643;SDS011;32371;51.032;5.816;2023-01-15T09:34:38;0.47;;;0.40;;
46643;SDS011;32371;51.032;5.816;2023-01-15T09:37:04;5.03;;;0.60;;
46643;SDS011;32371;51.032;5.816;2023-01-15T09:39:29;4.70;;;0.60;;
46643;SDS011;32371;51.032;5.816;2023-01-15T09:47:22;7.57;;;0.88;;
46643;SDS011;32371;51.032;5.816;2023-01-15T09:53:04;3.60;;;0.57;;
46643;SDS011;32371;51.032;5.816;2023-01-15T09:55:44;7.47;;;0.85;;
46643;SDS011;32371;51.032;5.816;2023-01-15T09:58:11;10.15;;;0.68;;
46643;SDS011;32371;51.032;5.816;2023-01-15T10:00:41;5.32;;;0.90;;
46643;SDS011;32371;51.032;5.816;2023-01-15T10:08:23;3.10;;;0.90;;
46643;SDS011;32371;51.032;5.816;2023-01-15T10:14:39;5.57;;;0.93;;
46643;SDS011;32371;51.032;5.816;2023-01-15T10:17:18;7.60;;;0.80;;
46643;SDS011;32371;51.032;5.816;2023-01-15T10:19:47;4.28;;;0.50;;
46643;SDS011;32371;51.032;5.816;2023-01-15T10:22:16;6.72;;;1.23;;
46643;SDS011;32371;51.032;5.816;2023-01-15T10:24:56;2.33;;;0.50;;
46643;SDS011;32371;51.032;5.816;2023-01-15T10:27:23;3.93;;;0.23;;
46643;SDS011;32371;51.032;5.816;2023-01-15T10:32:54;3.50;;;0.63;;
46643;SDS011;32371;51.032;5.816;2023-01-15T10:35:27;3.30;;;0.63;;
46643;SDS011;32371;51.032;5.816;2023-01-15T10:45:59;5.07;;;0.82;;
46643;SDS011;32371;51.032;5.816;2023-01-15T10:53:54;0.90;;;0.35;;
46643;SDS011;32371;51.032;5.816;2023-01-15T10:59:12;1.55;;;0.50;;
46643;SDS011;32371;51.032;5.816;2023-01-15T11:01:46;2.35;;;1.00;;
46643;SDS011;32371;51.032;5.816;2023-01-15T11:04:12;2.33;;;0.60;;
46643;SDS011;32371;51.032;5.816;2023-01-15T11:06:38;3.25;;;0.40;;
46643;SDS011;32371;51.032;5.816;2023-01-15T11:09:03;1.77;;;0.45;;
46643;SDS011;32371;51.032;5.816;2023-01-15T11:17:16;2.45;;;0.40;;
46643;SDS011;32371;51.032;5.816;2023-01-15T11:20:01;1.95;;;0.32;;
46643;SDS011;32371;51.032;5.816;2023-01-15T11:22:29;3.10;;;0.50;;
46643;SDS011;32371;51.032;5.816;2023-01-15T11:24:56;0.57;;;0.40;;
46643;SDS011;32371;51.032;5.816;2023-01-15T11:27:23;6.53;;;0.80;;
46643;SDS011;32371;51.032;5.816;2023-01-15T11:29:55;3.75;;;0.35;;
46643;SDS011;32371;51.032;5.816;2023-01-15T11:32:27;1.10;;;0.30;;
46643;SDS011;32371;51.032;5.816;2023-01-15T11:35:00;4.63;;;0.95;;
46643;SDS011;32371;51.032;5.816;2023-01-15T11:37:27;5.53;;;0.52;;
46643;SDS011;32371;51.032;5.816;2023-01-15T11:39:54;1.38;;;0.40;;
46643;SDS011;32371;51.032;5.816;2023-01-15T11:42:21;2.25;;;0.47;;
46643;SDS011;32371;51.032;5.816;2023-01-15T11:45:19;3.10;;;0.32;;
46643;SDS011;32371;51.032;5.816;2023-01-15T11:48:13;0.80;;;0.25;;
46643;SDS011;32371;51.032;5.816;2023-01-15T11:53:31;1.27;;;0.50;;
46643;SDS011;32371;51.032;5.816;2023-01-15T11:56:04;1.23;;;0.35;;
46643;SDS011;32371;51.032;5.816;2023-01-15T12:03:56;1.08;;;0.40;;
46643;SDS011;32371;51.032;5.816;2023-01-15T12:06:22;4.45;;;0.50;;
46643;SDS011;32371;51.032;5.816;2023-01-15T12:14:16;0.35;;;0.32;;
46643;SDS011;32371;51.032;5.816;2023-01-15T12:17:01;2.15;;;0.52;;
46643;SDS011;32371;51.032;5.816;2023-01-15T12:22:12;2.65;;;0.57;;
46643;SDS011;32371;51.032;5.816;2023-01-15T12:25:12;1.63;;;0.30;;
46643;SDS011;32371;51.032;5.816;2023-01-15T12:28:02;3.78;;;0.73;;
46643;SDS011;32371;51.032;5.816;2023-01-15T12:33:34;4.70;;;0.40;;
46643;SDS011;32371;51.032;5.816;2023-01-15T12:36:22;2.45;;;0.40;;
46643;SDS011;32371;51.032;5.816;2023-01-15T12:39:55;3.35;;;0.63;;
46643;SDS011;32371;51.032;5.816;2023-01-15T12:42:03;1.45;;;0.32;;
46643;SDS011;32371;51.032;5.816;2023-01-15T12:44:55;1.00;;;0.60;;
46643;SDS011;32371;51.032;5.816;2023-01-15T12:50:46;2.53;;;0.17;;
46643;SDS011;32371;51.032;5.816;2023-01-15T12:55:52;3.25;;;1.20;;
46643;SDS011;32371;51.032;5.816;2023-01-15T13:00:50;1.92;;;0.40;;
46643;SDS011;32371;51.032;5.816;2023-01-15T13:03:26;5.63;;;0.68;;
46643;SDS011;32371;51.032;5.816;2023-01-15T13:06:01;0.98;;;0.30;;
46643;SDS011;32371;51.032;5.816;2023-01-15T13:11:03;0.60;;;0.15;;
46643;SDS011;32371;51.032;5.816;2023-01-15T13:13:29;1.20;;;0.40;;
46643;SDS011;32371;51.032;5.816;2023-01-15T13:16:21;1.27;;;0.47;;
46643;SDS011;32371;51.032;5.816;2023-01-15T13:22:11;2.72;;;0.40;;
46643;SDS011;32371;51.032;5.816;2023-01-15T13:30:32;6.63;;;0.88;;
46643;SDS011;32371;51.032;5.816;2023-01-15T13:38:44;5.22;;;0.70;;
46643;SDS011;32371;51.032;5.816;2023-01-15T13:41:15;1.73;;;1.10;;
46643;SDS011;32371;51.032;5.816;2023-01-15T13:44:03;3.97;;;0.40;;
46643;SDS011;32371;51.032;5.816;2023-01-15T13:46:29;3.50;;;0.40;;
46643;SDS011;32371;51.032;5.816;2023-01-15T13:48:55;5.80;;;0.60;;
46643;SDS011;32371;51.032;5.816;2023-01-15T13:53:50;0.70;;;0.30;;
46643;SDS011;32371;51.032;5.816;2023-01-15T13:56:26;1.23;;;0.63;;
46643;SDS011;32371;51.032;5.816;2023-01-15T13:58:55;1.30;;;0.20;;
46643;SDS011;32371;51.032;5.816;2023-01-15T14:01:24;3.00;;;0.30;;
46643;SDS011;32371;51.032;5.816;2023-01-15T14:04:02;0.35;;;0.15;;
46643;SDS011;32371;51.032;5.816;2023-01-15T14:09:12;3.03;;;0.43;;
46643;SDS011;32371;51.032;5.816;2023-01-15T14:37:02;2.55;;;0.50;;
46643;SDS011;32371;51.032;5.816;2023-01-15T14:42:04;2.28;;;0.55;;
46643;SDS011;32371;51.032;5.816;2023-01-15T14:44:59;1.40;;;0.47;;
46643;SDS011;32371;51.032;5.816;2023-01-15T14:47:32;0.95;;;0.50;;
46643;SDS011;32371;51.032;5.816;2023-01-15T14:50:02;2.90;;;0.68;;
46643;SDS011;32371;51.032;5.816;2023-01-15T14:52:49;9.57;;;1.92;;
46643;SDS011;32371;51.032;5.816;2023-01-15T14:55:15;3.55;;;1.52;;
46643;SDS011;32371;51.032;5.816;2023-01-15T14:57:42;9.15;;;3.45;;
46643;SDS011;32371;51.032;5.816;2023-01-15T15:00:15;13.07;;;4.70;;
46643;SDS011;32371;51.032;5.816;2023-01-15T15:02:42;14.65;;;4.22;;
46643;SDS011;32371;51.032;5.816;2023-01-15T15:05:11;2.08;;;1.25;;
46643;SDS011;32371;51.032;5.816;2023-01-15T15:07:41;4.03;;;1.63;;
46643;SDS011;32371;51.032;5.816;2023-01-15T15:10:12;1.65;;;0.65;;
46643;SDS011;32371;51.032;5.816;2023-01-15T15:12:53;1.98;;;0.75;;
46643;SDS011;32371;51.032;5.816;2023-01-15T15:20:22;5.25;;;0.93;;
46643;SDS011;32371;51.032;5.816;2023-01-15T15:22:52;2.00;;;0.70;;
46643;SDS011;32371;51.032;5.816;2023-01-15T15:25:21;4.22;;;0.60;;
46643;SDS011;32371;51.032;5.816;2023-01-15T15:27:48;1.10;;;0.73;;
46643;SDS011;32371;51.032;5.816;2023-01-15T15:30:25;3.80;;;1.00;;
46643;SDS011;32371;51.032;5.816;2023-01-15T15:32:52;1.67;;;0.60;;
46643;SDS011;32371;51.032;5.816;2023-01-15T15:35:20;2.92;;;0.65;;
46643;SDS011;32371;51.032;5.816;2023-01-15T15:37:49;1.60;;;0.32;;
46643;SDS011;32371;51.032;5.816;2023-01-15T15:40:16;5.75;;;0.95;;
46643;SDS011;32371;51.032;5.816;2023-01-15T15:42:46;8.70;;;0.80;;
46643;SDS011;32371;51.032;5.816;2023-01-15T15:45:32;6.30;;;0.90;;
46643;SDS011;32371;51.032;5.816;2023-01-15T15:48:17;5.65;;;0.70;;
46643;SDS011;32371;51.032;5.816;2023-01-15T15:51:03;1.90;;;0.80;;
46643;SDS011;32371;51.032;5.816;2023-01-15T15:53:29;1.10;;;0.40;;
46643;SDS011;32371;51.032;5.816;2023-01-15T15:55:55;1.80;;;0.57;;
46643;SDS011;32371;51.032;5.816;2023-01-15T16:00:47;2.70;;;0.70;;
46643;SDS011;32371;51.032;5.816;2023-01-15T16:03:23;1.20;;;0.68;;
46643;SDS011;32371;51.032;5.816;2023-01-15T16:05:54;0.77;;;0.40;;
46643;SDS011;32371;51.032;5.816;2023-01-15T16:08:24;1.25;;;0.60;;
46643;SDS011;32371;51.032;5.816;2023-01-15T16:10:51;1.98;;;0.32;;
46643;SDS011;32371;51.032;5.816;2023-01-15T16:14:02;2.90;;;0.30;;
46643;SDS011;32371;51.032;5.816;2023-01-15T16:16:08;5.38;;;1.13;;
46643;SDS011;32371;51.032;5.816;2023-01-15T16:18:35;1.05;;;0.20;;
46643;SDS011;32371;51.032;5.816;2023-01-15T16:21:08;0.20;;;0.20;;
46643;SDS011;32371;51.032;5.816;2023-01-15T16:23:34;0.68;;;0.43;;
46643;SDS011;32371;51.032;5.816;2023-01-15T16:26:09;3.58;;;0.63;;
46643;SDS011;32371;51.032;5.816;2023-01-15T16:28:39;2.10;;;0.30;;
46643;SDS011;32371;51.032;5.816;2023-01-15T16:31:09;0.73;;;0.35;;
46643;SDS011;32371;51.032;5.816;2023-01-15T16:33:35;0.57;;;0.50;;
46643;SDS011;32371;51.032;5.816;2023-01-15T16:36:02;2.72;;;0.38;;
46643;SDS011;32371;51.032;5.816;2023-01-15T16:38:32;1.85;;;0.20;;
46643;SDS011;32371;51.032;5.816;2023-01-15T16:41:00;3.13;;;0.40;;
46643;SDS011;32371;51.032;5.816;2023-01-15T16:43:26;2.92;;;0.30;;
46643;SDS011;32371;51.032;5.816;2023-01-15T16:50:47;1.48;;;0.40;;
46643;SDS011;32371;51.032;5.816;2023-01-15T16:53:46;0.30;;;0.30;;
46643;SDS011;32371;51.032;5.816;2023-01-15T16:56:05;1.58;;;0.65;;
46643;SDS011;32371;51.032;5.816;2023-01-15T16:58:52;0.90;;;0.40;;
46643;SDS011;32371;51.032;5.816;2023-01-15T17:01:31;1.17;;;0.30;;
46643;SDS011;32371;51.032;5.816;2023-01-15T17:03:59;3.13;;;0.30;;
46643;SDS011;32371;51.032;5.816;2023-01-15T17:06:25;3.83;;;0.40;;
46643;SDS011;32371;51.032;5.816;2023-01-15T17:08:52;1.65;;;0.40;;
46643;SDS011;32371;51.032;5.816;2023-01-15T17:11:18;5.38;;;0.52;;
46643;SDS011;32371;51.032;5.816;2023-01-15T17:13:46;3.35;;;0.70;;
46643;SDS011;32371;51.032;5.816;2023-01-15T17:18:37;5.55;;;0.40;;
46643;SDS011;32371;51.032;5.816;2023-01-15T17:21:03;3.53;;;0.75;;
46643;SDS011;32371;51.032;5.816;2023-01-15T17:23:30;2.20;;;0.80;;
46643;SDS011;32371;51.032;5.816;2023-01-15T17:25:59;3.97;;;0.43;;
46643;SDS011;32371;51.032;5.816;2023-01-15T17:28:24;0.82;;;0.82;;
46643;SDS011;32371;51.032;5.816;2023-01-15T17:30:51;3.25;;;0.65;;
46643;SDS011;32371;51.032;5.816;2023-01-15T17:33:17;3.83;;;0.40;;
46643;SDS011;32371;51.032;5.816;2023-01-15T17:35:44;2.00;;;0.20;;
46643;SDS011;32371;51.032;5.816;2023-01-15T17:38:12;2.42;;;0.35;;
46643;SDS011;32371;51.032;5.816;2023-01-15T17:40:38;1.27;;;0.50;;
46643;SDS011;32371;51.032;5.816;2023-01-15T17:43:04;2.35;;;0.35;;